Nearby METAR Reports

 

KMTN - Baltimore/Martin, Maryland, USA
Distance from station: SSE 8mi, 13km
Updated: Wed, 23-Jul-2014 9:45am EDT
Partly cloudy
Partly cloudy
 Wind from S
Wind: S 7 mph , 11 km/h
Temperature: 81°F , 27°C
Heat Index: 87°F , 31°C
Dew Point: 75°F , 24°C
Humidity: 84%
Barometer: 29.99 inHg , 1015.6 hPa
Clouds: Partly cloudy
Visibility: 10 miles , 16 km
Cloud details: Partly cloudy 10000 ft
2014/07/23 13:45 KMTN 231345Z 18006KT 10SM SCT100 27/24 A2999
KDMH - Baltimore/Dwntwn, Maryland, USA
Distance from station: SW 12mi, 19km
Updated: Wed, 23-Jul-2014 8:54am EDT

 
Temperature: 81°F , 27°C
Heat Index: 85°F , 29°C
Dew Point: 70°F , 21°C
Humidity: 70%
Barometer: 29.99 inHg , 1015.6 hPa
2014/07/23 12:54 KDMH 231254Z AUTO 27/21 A2999 RMK AO1 SLP156 T02720211
 
KBWI - Balto/Wash Intl, Maryland, USA
Distance from station: SSW 20mi, 33km
Updated: Wed, 23-Jul-2014 8:54am EDT
Partly cloudy
Partly cloudy
 Wind from WSW
Wind: WSW 7 mph , 11 km/h
Temperature: 81°F , 27°C
Heat Index: 85°F , 29°C
Dew Point: 72°F , 22°C
Humidity: 74%
Barometer: 29.99 inHg , 1015.6 hPa
Clouds: Partly cloudy
Visibility: 10 miles , 16 km
Cloud details: Partly cloudy 10000 ft
2014/07/23 12:54 KBWI 231254Z 24006KT 10SM SCT100 27/22 A2999 RMK AO2 SLP156 T02670217
KDMW - Carroll Cnty, Maryland, USA
Distance from station: WNW 30mi, 48km
Updated: Wed, 23-Jul-2014 9:35am EDT
Clear
Clear
 Wind from SSW
Wind: SSW 6 mph , 9 km/h
Temperature: 79°F , 26°C
Dew Point: 73°F , 23°C
Humidity: 84%
Barometer: 30.00 inHg , 1015.9 hPa
Clouds: Clear
Visibility: 10 miles , 16 km
2014/07/23 13:35 KDMW 231335Z AUTO 21005KT 10SM CLR 26/23 A3000 RMK AO2
 
KNAK - Annapolis/Naval, Maryland, USA
Distance from station: S 30mi, 48km
Updated: Wed, 23-Jul-2014 9:54am EDT
Mostly cloudy
Mostly cloudy
 Wind from SW
Wind: SW 6 mph , 9 km/h
Temperature: 81°F , 27°C
Heat Index: 85°F , 29°C
Dew Point: 72°F , 22°C
Humidity: 74%
Barometer: 29.98 inHg , 1015.2 hPa
Clouds: Mostly cloudy
Visibility: 10 miles , 16 km
Cloud details: Partly cloudy 6500 ft
Mostly cloudy 8000 ft
2014/07/23 13:54 KNAK 231354Z AUTO 23005KT 10SM SCT065 BKN080 27/22 A2998 RMK AO2 SLP155 T02720222
KW29 - Stevensville, Maryland, USA
Distance from station: SSE 31mi, 50km
Updated: Wed, 23-Jul-2014 9:35am EDT

 Wind from SSW
Wind: SSW 5 mph , 7 km/h
Temperature: 79°F , 26°C
Dew Point: 72°F , 22°C
Humidity: 79%
Barometer: 29.99 inHg , 1015.6 hPa
Visibility: 10 miles , 16 km
2014/07/23 13:35 KW29 231335Z AUTO 21004KT 10SM 26/22 A2999 RMK AO1
 
KCGS - College Park, Maryland, USA
Distance from station: SW 38mi, 61km
Updated: Wed, 23-Jul-2014 9:35am EDT
Partly cloudy
Partly cloudy
 Wind from SW
Wind: SW 5 mph , 7 km/h
Temperature: 82°F , 28°C
Heat Index: 86°F , 30°C
Dew Point: 72°F , 22°C
Humidity: 70%
Barometer: 29.99 inHg , 1015.6 hPa
Clouds: Partly cloudy
Visibility: 10 miles , 16 km
Cloud details: Partly cloudy 8000 ft
2014/07/23 13:35 KCGS 231335Z AUTO 23004KT 10SM SCT080 28/22 A2999 RMK AO1
KGAI - Gaithersburg, Maryland, USA
Distance from station: WSW 40mi, 65km
Updated: Wed, 23-Jul-2014 9:35am EDT
Clear
Clear
 Wind from W
Wind: W 5 mph , 7 km/h
Temperature: 81°F , 27°C
Heat Index: 85°F , 29°C
Dew Point: 72°F , 22°C
Humidity: 74%
Barometer: 30.03 inHg , 1016.9 hPa
Clouds: Clear
Visibility: 10 miles , 16 km
2014/07/23 13:35 KGAI 231335Z AUTO 26004KT 10SM CLR 27/22 A3003 RMK AO1
 
KTHV - York, Pennsylvania, USA
Distance from station: NNW 40mi, 65km
Updated: Wed, 23-Jul-2014 8:53am EDT
Clear
Clear
 Wind from calm
Wind: Calm
Temperature: 79°F , 26°C
Dew Point: 72°F , 22°C
Humidity: 79%
Barometer: 29.99 inHg , 1015.6 hPa
Clouds: Clear
Visibility: 10 miles , 16 km
2014/07/23 12:53 KTHV 231253Z AUTO 00000KT 10SM CLR 26/22 A2999 RMK AO2 SLP153 T02560217
KFDK - Frederick, Maryland, USA
Distance from station: W 47mi, 75km
Updated: Wed, 23-Jul-2014 9:48am EDT
Clear
Clear
 Wind from SSW
Wind: SSW 5 mph , 7 km/h
Temperature: 82°F , 28°C
Heat Index: 89°F , 32°C
Dew Point: 75°F , 24°C
Humidity: 79%
Barometer: 30.01 inHg , 1016.3 hPa
Clouds: Clear
Visibility: 10 miles , 16 km
2014/07/23 13:48 KFDK 231348Z 21004KT 10SM SKC 28/24 A3001
 
KESN - Easton/Newnam, Maryland, USA
Distance from station: SSE 48mi, 78km
Updated: Wed, 23-Jul-2014 9:50am EDT
Partly cloudy
Partly cloudy
 Wind from SW
Wind: SW 8 mph , 13 km/h
Temperature: 84°F , 29°C
Heat Index: 92°F , 33°C
Dew Point: 75°F , 24°C
Humidity: 74%
Barometer: 30.04 inHg , 1017.3 hPa
Clouds: Partly cloudy
Visibility: 10 miles , 16 km
Cloud details: Few Clouds 1500 ft
Partly cloudy 6000 ft
2014/07/23 13:50 KESN 231350Z 22007KT 10SM FEW015 SCT060 29/24 A3004
KDCA - Washington/Natl, Washington D.c., USA
Distance from station: SW 49mi, 79km
Updated: Wed, 23-Jul-2014 9:52am EDT
Partly cloudy
Partly cloudy
 Wind from S
Wind: S 8 mph , 13 km/h
Temperature: 82°F , 28°C
Heat Index: 86°F , 30°C
Dew Point: 72°F , 22°C
Humidity: 70%
Barometer: 29.99 inHg , 1015.6 hPa
Clouds: Partly cloudy
Visibility: 10 miles , 16 km
Cloud details: Few Clouds 10000 ft
Partly cloudy 25000 ft
2014/07/23 13:52 KDCA 231352Z 17007KT 10SM FEW100 SCT250 28/22 A2999 RMK AO2 SLP155 ACC S T02830222
 
KLNS - Lancaster, Pennsylvania, USA
Distance from station: N 49mi, 79km
Updated: Wed, 23-Jul-2014 8:53am EDT
Clear
Clear
 Wind from WSW
Wind: WSW 3 mph , 6 km/h
Temperature: 75°F , 24°C
Dew Point: 70°F , 21°C
Humidity: 83%
Barometer: 30.00 inHg , 1015.9 hPa
Clouds: Clear
Visibility: 10 miles , 16 km
2014/07/23 12:53 KLNS 231253Z 24003KT 10SM CLR 24/21 A3000 RMK AO2 SLP154 T02440206
KILG - Wilmington, Delaware, USA
Distance from station: ENE 50mi, 81km
Updated: Wed, 23-Jul-2014 9:51am EDT
Clear
Clear
 Wind from SW
Wind: SW 9 mph , 15 km/h
Temperature: 82°F , 28°C
Heat Index: 87°F , 31°C
Dew Point: 73°F , 23°C
Humidity: 74%
Barometer: 29.99 inHg , 1015.6 hPa
Clouds: Clear
Visibility: 10 miles , 16 km
2014/07/23 13:51 KILG 231351Z 22008KT 10SM CLR 28/23 A2999 RMK AO2 SLP153 T02780228